createdAt,value
2018-12-17T00:01:51.702Z,54.97
2018-12-17T00:04:55.709Z,55.03
2018-12-17T00:07:59.464Z,54.81
2018-12-17T00:11:03.412Z,54.87
2018-12-17T00:14:05.192Z,55.11
2018-12-17T00:17:06.876Z,55.11
2018-12-17T00:20:09.520Z,55.62
2018-12-17T00:23:11.239Z,55.28
2018-12-17T00:26:15.128Z,54.76
2018-12-17T00:29:16.868Z,55.34
2018-12-17T00:32:18.684Z,55.21
2018-12-17T00:35:20.360Z,54.89
2018-12-17T00:38:22.152Z,55.05
2018-12-17T00:41:23.900Z,54.82
2018-12-17T00:44:25.613Z,55.30
2018-12-17T00:47:27.292Z,54.61
2018-12-17T00:50:29.058Z,54.73
2018-12-17T00:53:30.746Z,54.78
2018-12-17T00:56:32.581Z,54.35
2018-12-17T00:59:34.239Z,54.75
2018-12-17T01:02:35.989Z,54.42
2018-12-17T01:05:37.778Z,54.58
2018-12-17T01:08:39.580Z,54.63
2018-12-17T01:11:41.331Z,54.65
2018-12-17T01:14:43.093Z,54.26
2018-12-17T01:17:44.758Z,53.92
2018-12-17T01:20:46.509Z,54.66
2018-12-17T01:23:48.511Z,54.67
2018-12-17T01:26:50.229Z,54.80
2018-12-17T01:29:51.999Z,54.51
2018-12-17T01:32:53.962Z,55.25
2018-12-17T01:35:56.744Z,54.64
2018-12-17T01:38:58.498Z,54.80
2018-12-17T01:42:00.192Z,54.62
2018-12-17T01:45:02.130Z,54.84
2018-12-17T01:48:04.006Z,55.34
2018-12-17T01:51:05.782Z,55.26
2018-12-17T01:54:07.568Z,55.41
2018-12-17T01:57:09.317Z,55.40
2018-12-17T02:00:11.106Z,54.99
2018-12-17T02:03:12.853Z,55.39
2018-12-17T02:06:14.673Z,54.91
2018-12-17T02:09:16.478Z,55.35
2018-12-17T02:12:18.210Z,55.18
2018-12-17T02:15:20.065Z,55.24
2018-12-17T02:18:21.832Z,55.69
2018-12-17T02:21:23.569Z,55.45
2018-12-17T02:24:25.310Z,56.24
2018-12-17T02:27:27.159Z,55.95
2018-12-17T02:30:28.990Z,56.02
2018-12-17T02:33:30.766Z,56.85
2018-12-17T02:36:32.515Z,56.67
2018-12-17T02:39:34.382Z,56.31
2018-12-17T02:42:36.169Z,56.43
2018-12-17T02:45:37.982Z,56.50
2018-12-17T02:48:39.732Z,56.37
2018-12-17T02:51:41.532Z,56.28
2018-12-17T02:54:43.460Z,55.76
2018-12-17T02:57:45.259Z,55.91
2018-12-17T03:00:47.180Z,55.28
2018-12-17T03:03:49.207Z,55.82
2018-12-17T03:06:50.992Z,56.35
2018-12-17T03:09:53.121Z,56.29
2018-12-17T03:12:54.891Z,56.08
2018-12-17T03:15:56.710Z,56.17
2018-12-17T03:18:58.421Z,56.46
2018-12-17T03:22:00.195Z,56.35
2018-12-17T03:25:01.959Z,56.20
2018-12-17T03:28:03.729Z,56.05
2018-12-17T03:31:06.614Z,56.20
2018-12-17T03:34:08.302Z,56.09
2018-12-17T03:37:10.072Z,56.51
2018-12-17T03:40:11.733Z,56.68
2018-12-17T03:43:13.500Z,56.52
2018-12-17T03:46:15.206Z,56.52
2018-12-17T03:49:16.888Z,56.20
2018-12-17T03:52:18.585Z,55.58
2018-12-17T03:55:20.321Z,55.75
2018-12-17T03:58:22.054Z,55.18
2018-12-17T04:01:23.853Z,55.37
2018-12-17T04:04:25.612Z,55.25
2018-12-17T04:07:27.346Z,55.21
2018-12-17T04:10:29.044Z,55.74
2018-12-17T04:13:30.785Z,55.86
2018-12-17T04:16:33.770Z,55.58
2018-12-17T04:19:35.492Z,55.54
2018-12-17T04:22:37.225Z,55.58
2018-12-17T04:25:39.024Z,55.70
2018-12-17T04:28:40.737Z,56.15
2018-12-17T04:31:42.488Z,56.02
2018-12-17T04:34:45.290Z,56.66
2018-12-17T04:37:47.010Z,56.37
2018-12-17T04:40:48.838Z,56.18
2018-12-17T04:43:50.686Z,56.08
2018-12-17T04:46:52.430Z,56.19
2018-12-17T04:49:54.154Z,56.40
2018-12-17T04:52:55.798Z,56.86
2018-12-17T04:55:57.558Z,57.18
2018-12-17T04:58:59.459Z,57.25
2018-12-17T05:02:01.362Z,57.37
2018-12-17T05:05:04.070Z,57.08
2018-12-17T05:08:05.798Z,57.09
2018-12-17T05:11:07.568Z,57.37
2018-12-17T05:14:09.599Z,57.33
2018-12-17T05:17:11.401Z,57.24
2018-12-17T05:20:13.307Z,57.83
2018-12-17T05:23:15.061Z,57.40
2018-12-17T05:26:16.976Z,56.99
2018-12-17T05:29:21.721Z,57.16
2018-12-17T05:32:22.847Z,57.06
2018-12-17T05:35:24.660Z,57.70
2018-12-17T05:38:28.613Z,57.91
2018-12-17T05:41:30.266Z,57.87
2018-12-17T05:44:31.998Z,57.75
2018-12-17T05:47:33.708Z,57.71
2018-12-17T05:50:35.538Z,57.68
2018-12-17T05:53:37.336Z,58.00
2018-12-17T05:56:38.985Z,57.52
2018-12-17T05:59:40.800Z,57.47
2018-12-17T06:02:42.488Z,57.10
2018-12-17T06:05:44.207Z,56.96
2018-12-17T06:08:45.917Z,56.56
2018-12-17T06:11:47.936Z,57.10
2018-12-17T06:14:49.600Z,56.67
2018-12-17T06:17:51.296Z,56.56
2018-12-17T06:20:53.239Z,55.99
2018-12-17T06:23:55.064Z,56.39
2018-12-17T06:26:56.778Z,55.96
2018-12-17T06:29:58.648Z,55.92
2018-12-17T06:33:00.334Z,56.16
2018-12-17T06:36:02.167Z,55.99
2018-12-17T06:39:05.721Z,56.68
2018-12-17T06:42:08.601Z,56.92
2018-12-17T06:45:10.270Z,56.92
2018-12-17T06:48:17.105Z,57.16
2018-12-17T06:51:15.852Z,56.87
2018-12-17T06:54:17.862Z,56.23
2018-12-17T06:57:19.612Z,56.25
2018-12-17T07:00:21.513Z,56.11
2018-12-17T07:03:23.312Z,55.89
2018-12-17T07:06:25.123Z,56.28
2018-12-17T07:09:26.919Z,56.03
2018-12-17T07:12:35.545Z,56.39
2018-12-17T07:15:37.323Z,56.11
2018-12-17T07:18:39.062Z,56.11
2018-12-17T07:21:40.787Z,56.21
2018-12-17T07:24:42.565Z,55.66
2018-12-17T07:27:44.272Z,55.98
2018-12-17T07:30:46.116Z,56.19
2018-12-17T07:33:47.778Z,56.33
2018-12-17T07:36:49.560Z,56.53
2018-12-17T07:39:51.431Z,56.36
2018-12-17T07:42:53.351Z,56.54
2018-12-17T07:45:55.220Z,56.54
2018-12-17T07:48:56.982Z,56.04
2018-12-17T07:51:58.669Z,55.92
2018-12-17T07:55:00.553Z,56.07
2018-12-17T07:58:02.333Z,55.85
2018-12-17T08:01:04.234Z,56.05
2018-12-17T08:04:06.012Z,56.40
2018-12-17T08:07:07.870Z,56.59
2018-12-17T08:10:09.588Z,56.38
2018-12-17T08:13:11.462Z,55.83
2018-12-17T08:16:13.170Z,56.02
2018-12-17T08:19:14.897Z,55.62
2018-12-17T08:22:16.585Z,55.82
2018-12-17T08:25:18.323Z,55.58
2018-12-17T08:28:20.021Z,55.66
2018-12-17T08:31:21.898Z,55.65
2018-12-17T08:34:23.679Z,55.74
2018-12-17T08:37:25.538Z,55.67
2018-12-17T08:40:27.270Z,55.54
2018-12-17T08:43:29.160Z,55.72
2018-12-17T08:46:30.969Z,55.58
2018-12-17T08:49:32.741Z,55.22
2018-12-17T08:52:35.540Z,54.90
2018-12-17T08:55:40.286Z,55.20
2018-12-17T08:58:42.168Z,55.16
2018-12-17T09:01:44.196Z,54.90
2018-12-17T09:04:46.033Z,54.67
2018-12-17T09:07:47.834Z,54.56
2018-12-17T09:10:49.641Z,54.82
2018-12-17T09:13:51.493Z,54.36
2018-12-17T09:16:53.297Z,54.60
2018-12-17T09:19:55.083Z,54.35
2018-12-17T09:22:56.834Z,54.37
2018-12-17T09:25:58.920Z,54.46
2018-12-17T09:29:00.605Z,54.50
2018-12-17T09:32:02.489Z,54.04
2018-12-17T09:35:04.462Z,54.37
2018-12-17T09:38:06.293Z,54.36
2018-12-17T09:41:08.019Z,54.36
2018-12-17T09:44:09.855Z,54.25
2018-12-17T09:47:11.541Z,54.10
2018-12-17T09:50:13.287Z,54.04
2018-12-17T09:53:15.106Z,54.06
2018-12-17T09:56:16.957Z,54.03
2018-12-17T09:59:18.662Z,53.90
2018-12-17T10:02:20.561Z,53.75
2018-12-17T10:05:22.343Z,53.84
2018-12-17T10:08:24.153Z,53.73
2018-12-17T10:11:25.870Z,53.82
2018-12-17T10:14:27.664Z,53.87
2018-12-17T10:17:29.362Z,53.57
2018-12-17T10:20:31.104Z,53.92
2018-12-17T10:23:32.791Z,53.66
2018-12-17T10:26:34.718Z,53.69
2018-12-17T10:29:36.474Z,53.64
2018-12-17T10:32:38.494Z,53.42
2018-12-17T10:35:40.257Z,53.37
2018-12-17T10:38:41.995Z,53.26
2018-12-17T10:41:43.752Z,53.33
2018-12-17T10:44:47.464Z,53.42
2018-12-17T10:47:49.173Z,53.34
2018-12-17T10:50:50.881Z,53.52
2018-12-17T10:53:52.605Z,53.43
2018-12-17T10:56:54.392Z,53.57
2018-12-17T10:59:56.434Z,53.61
2018-12-17T11:02:59.589Z,53.61
2018-12-17T11:06:02.452Z,53.91
2018-12-17T11:09:05.643Z,54.03
2018-12-17T11:12:08.837Z,53.84
2018-12-17T11:15:10.762Z,53.87
2018-12-17T11:18:12.510Z,53.89
2018-12-17T11:21:14.285Z,54.05
2018-12-17T11:24:17.066Z,54.01
2018-12-17T11:27:18.964Z,53.92
2018-12-17T11:30:20.673Z,54.01
2018-12-17T11:33:22.453Z,53.94
2018-12-17T11:36:24.173Z,54.21
2018-12-17T11:39:25.893Z,54.16
2018-12-17T11:42:27.606Z,54.31
2018-12-17T11:45:29.693Z,54.36
2018-12-17T11:48:31.538Z,54.12
2018-12-17T11:51:33.301Z,53.96
2018-12-17T11:54:35.000Z,53.88
2018-12-17T11:57:58.511Z,53.94
2018-12-17T12:01:02.695Z,53.77
2018-12-17T12:04:05.625Z,54.19
2018-12-17T12:07:07.396Z,53.89
2018-12-17T12:10:09.214Z,54.09
2018-12-17T12:13:10.967Z,54.07
2018-12-17T12:16:12.653Z,54.24
2018-12-17T12:19:14.391Z,54.52
2018-12-17T12:22:16.094Z,54.47
2018-12-17T12:25:17.833Z,54.87
2018-12-17T12:28:19.760Z,55.12
2018-12-17T12:31:21.919Z,54.91
2018-12-17T12:34:23.737Z,55.11
2018-12-17T12:37:25.557Z,54.92
2018-12-17T12:40:27.349Z,54.91
2018-12-17T12:43:30.264Z,54.75
2018-12-17T12:46:32.150Z,55.63
2018-12-17T12:49:33.834Z,56.40
2018-12-17T12:52:35.656Z,56.34
2018-12-17T12:55:37.499Z,56.53
2018-12-17T12:58:39.383Z,56.11
2018-12-17T13:01:41.166Z,56.07
2018-12-17T13:04:42.975Z,56.04
2018-12-17T13:07:45.688Z,56.19
2018-12-17T13:10:47.410Z,56.12
2018-12-17T13:13:49.059Z,55.83
2018-12-17T13:16:50.723Z,55.90
2018-12-17T13:19:52.483Z,56.13
2018-12-17T13:22:54.210Z,56.07
2018-12-17T13:25:57.081Z,55.71
2018-12-17T13:28:58.893Z,55.57
2018-12-17T13:32:00.652Z,55.75
2018-12-17T13:35:02.469Z,55.58
2018-12-17T13:38:05.209Z,55.47
2018-12-17T13:41:07.002Z,55.21
2018-12-17T13:44:08.793Z,55.07
2018-12-17T13:47:10.610Z,55.07
2018-12-17T13:50:18.408Z,54.99
2018-12-17T13:53:26.231Z,55.04
2018-12-17T13:56:28.074Z,55.45
2018-12-17T13:59:29.821Z,56.01
2018-12-17T14:02:31.540Z,56.61
2018-12-17T14:05:33.411Z,56.96
2018-12-17T14:08:35.920Z,57.37
2018-12-17T14:11:37.711Z,57.57
2018-12-17T14:14:39.428Z,57.42
2018-12-17T14:17:43.268Z,57.08
2018-12-17T14:20:51.056Z,56.97
2018-12-17T14:23:52.844Z,57.34
2018-12-17T14:26:54.656Z,57.60
2018-12-17T14:29:56.366Z,58.06
2018-12-17T14:32:58.114Z,58.41
2018-12-17T14:36:05.917Z,58.72
2018-12-17T14:39:07.871Z,58.55
2018-12-17T14:42:10.673Z,58.27
2018-12-17T14:45:12.491Z,58.73
2018-12-17T14:48:14.143Z,58.72
2018-12-17T14:51:15.894Z,58.49
2018-12-17T14:54:18.071Z,58.54
2018-12-17T14:57:19.993Z,58.21
2018-12-17T15:00:21.755Z,58.40
2018-12-17T15:03:23.526Z,58.24
2018-12-17T15:06:25.316Z,58.32
2018-12-17T15:09:27.076Z,58.03
2018-12-17T15:12:28.955Z,58.28
2018-12-17T15:15:30.806Z,57.82
2018-12-17T15:18:32.595Z,58.01
2018-12-17T15:21:34.345Z,58.06
2018-12-17T15:24:40.408Z,57.73
2018-12-17T15:27:39.916Z,57.61
2018-12-17T15:30:41.699Z,57.23
2018-12-17T15:33:45.252Z,57.13
2018-12-17T15:36:48.225Z,57.25
2018-12-17T15:39:50.038Z,57.40
2018-12-17T15:42:51.958Z,57.15
2018-12-17T15:45:53.878Z,57.25
2018-12-17T15:48:55.719Z,57.32
2018-12-17T15:51:57.540Z,57.08
2018-12-17T15:54:59.470Z,57.00
2018-12-17T15:58:01.299Z,57.20
2018-12-17T16:01:03.192Z,57.42
2018-12-17T16:04:04.916Z,57.53
2018-12-17T16:07:06.744Z,57.30
2018-12-17T16:10:08.541Z,57.38
2018-12-17T16:13:10.338Z,57.53
2018-12-17T16:16:12.290Z,57.68
2018-12-17T16:19:14.093Z,57.66
2018-12-17T16:22:15.809Z,57.81
2018-12-17T16:25:17.574Z,57.80
2018-12-17T16:28:19.358Z,57.96
2018-12-17T16:34:29.641Z,57.98
2018-12-17T16:37:31.504Z,57.51
2018-12-17T16:40:33.628Z,57.65
2018-12-17T16:43:35.392Z,57.66
2018-12-17T16:46:37.114Z,57.40
2018-12-17T16:49:39.368Z,57.72
2018-12-17T16:52:41.081Z,57.58
2018-12-17T16:55:42.857Z,57.44
2018-12-17T16:58:44.614Z,57.26
2018-12-17T17:01:46.343Z,57.24
2018-12-17T17:04:48.236Z,57.54
2018-12-17T17:07:50.028Z,57.27
2018-12-17T17:10:51.743Z,57.08
2018-12-17T17:13:53.541Z,56.89
2018-12-17T17:17:02.620Z,56.97
2018-12-17T17:20:05.806Z,57.37
2018-12-17T17:23:07.706Z,57.32
2018-12-17T17:26:09.426Z,57.73
2018-12-17T17:29:11.224Z,57.81
2018-12-17T17:32:12.971Z,57.79
2018-12-17T17:35:14.734Z,57.97
2018-12-17T17:38:16.442Z,57.86
2018-12-17T17:41:18.200Z,57.56
2018-12-17T17:44:19.982Z,57.47
2018-12-17T17:47:21.799Z,57.63
2018-12-17T17:50:23.614Z,57.78
2018-12-17T17:53:25.307Z,57.53
2018-12-17T17:56:27.042Z,57.66
2018-12-17T17:59:28.746Z,57.81
2018-12-17T18:02:30.562Z,57.31
2018-12-17T18:05:32.284Z,57.27
2018-12-17T18:08:34.984Z,57.30
2018-12-17T18:11:36.862Z,57.56
2018-12-17T18:14:38.702Z,57.40
2018-12-17T18:17:40.714Z,57.22
2018-12-17T18:20:42.593Z,57.16
2018-12-17T18:23:44.331Z,56.80
2018-12-17T18:26:46.083Z,56.99
2018-12-17T18:29:47.795Z,57.10
2018-12-17T18:32:49.939Z,56.91
2018-12-17T18:35:58.534Z,57.16
2018-12-17T18:39:01.355Z,57.50
2018-12-17T18:42:04.526Z,57.88
2018-12-17T18:45:07.964Z,57.84
2018-12-17T18:48:11.157Z,58.10
2018-12-17T18:51:13.082Z,58.55
2018-12-17T18:54:14.859Z,58.42
2018-12-17T18:57:16.595Z,58.38
2018-12-17T19:00:18.365Z,58.00
2018-12-17T19:03:21.076Z,58.64
2018-12-17T19:06:22.995Z,58.71
2018-12-17T19:09:24.785Z,58.71
2018-12-17T19:12:26.939Z,58.79
2018-12-17T19:15:28.629Z,58.45
2018-12-17T19:18:30.493Z,57.94
2018-12-17T19:21:32.323Z,58.01
2018-12-17T19:24:34.239Z,58.07
2018-12-17T19:27:36.028Z,58.41
2018-12-17T19:30:37.720Z,58.66
2018-12-17T19:33:41.369Z,58.14
2018-12-17T19:36:45.715Z,58.27
2018-12-17T19:39:47.627Z,58.28
2018-12-17T19:42:49.676Z,58.25
2018-12-17T19:45:51.500Z,58.34
2018-12-17T19:48:53.262Z,58.10
2018-12-17T19:51:56.627Z,58.60
2018-12-17T19:55:05.382Z,58.47
2018-12-17T19:58:07.350Z,58.71
2018-12-17T20:01:09.352Z,58.58
2018-12-17T20:04:12.047Z,58.66
2018-12-17T20:07:14.891Z,58.46
2018-12-17T20:10:20.848Z,58.17
2018-12-17T20:13:22.718Z,58.51
2018-12-17T20:16:24.962Z,58.52
2018-12-17T20:19:28.507Z,58.48
2018-12-17T20:22:31.204Z,58.11
2018-12-17T20:25:33.161Z,57.85
2018-12-17T20:28:35.058Z,57.50
2018-12-17T20:31:38.435Z,57.01
2018-12-17T20:34:40.269Z,57.32
2018-12-17T20:37:42.270Z,57.16
2018-12-17T20:40:44.139Z,57.91
2018-12-17T20:43:47.015Z,58.65
2018-12-17T20:46:48.997Z,58.99
2018-12-17T20:49:51.948Z,59.21
2018-12-17T20:52:54.843Z,59.05
2018-12-17T20:55:57.932Z,58.91
2018-12-17T20:59:00.794Z,58.50
2018-12-17T21:02:02.710Z,58.10
2018-12-17T21:05:04.948Z,57.86
2018-12-17T21:08:06.766Z,58.09
2018-12-17T21:11:09.535Z,58.11
2018-12-17T21:14:11.426Z,58.58
2018-12-17T21:17:14.561Z,58.65
2018-12-17T21:20:16.304Z,58.31
2018-12-17T21:23:19.220Z,58.10
2018-12-17T21:26:20.971Z,58.12
2018-12-17T21:29:23.054Z,58.10
2018-12-17T21:32:25.010Z,58.41
2018-12-17T21:35:27.322Z,58.67
2018-12-17T21:38:29.196Z,58.77
2018-12-17T21:41:30.942Z,58.76
2018-12-17T21:44:32.677Z,58.28
2018-12-17T21:47:35.455Z,58.23
2018-12-17T21:50:37.189Z,57.92
2018-12-17T21:53:39.011Z,57.75
2018-12-17T21:56:40.821Z,57.64
2018-12-17T21:59:42.756Z,57.68
2018-12-17T22:02:44.624Z,57.67
2018-12-17T22:05:46.475Z,57.70
2018-12-17T22:08:48.321Z,57.75
2018-12-17T22:11:50.112Z,57.69
2018-12-17T22:14:51.953Z,57.35
2018-12-17T22:17:53.749Z,57.97
2018-12-17T22:20:55.561Z,58.12
2018-12-17T22:23:57.421Z,58.58
2018-12-17T22:26:59.381Z,58.62
2018-12-17T22:30:01.306Z,58.67
2018-12-17T22:33:03.133Z,58.72
2018-12-17T22:36:04.994Z,58.76
2018-12-17T22:39:07.184Z,58.62
2018-12-17T22:42:15.927Z,58.72
2018-12-17T22:45:17.741Z,58.29
2018-12-17T22:48:19.434Z,58.18
2018-12-17T22:51:21.164Z,57.79
2018-12-17T22:54:22.875Z,57.88
2018-12-17T22:57:24.718Z,57.84
2018-12-17T23:00:27.020Z,57.43
2018-12-17T23:03:31.042Z,58.03
2018-12-17T23:06:32.900Z,58.47
2018-12-17T23:09:46.920Z,59.34
2018-12-17T23:13:00.899Z,59.31
2018-12-17T23:16:14.641Z,59.63
2018-12-17T23:19:16.103Z,59.54
2018-12-17T23:22:20.120Z,59.11
2018-12-17T23:25:23.904Z,58.78
2018-12-17T23:28:25.678Z,58.58
2018-12-17T23:31:27.399Z,58.82
2018-12-17T23:34:29.286Z,58.83
2018-12-17T23:37:31.157Z,58.77
2018-12-17T23:40:33.022Z,59.11
2018-12-17T23:43:34.761Z,59.02
2018-12-17T23:46:36.510Z,59.12
2018-12-17T23:49:38.209Z,58.91
2018-12-17T23:52:39.996Z,58.68
2018-12-17T23:55:41.708Z,58.65
2018-12-17T23:58:43.501Z,58.35
